Date,TemperatureHighF,TemperatureAvgF,TemperatureLowF,DewpointHighF,DewpointAvgF,DewpointLowF,HumidityHigh,HumidityAvg,HumidityLow,PressureMaxIn,PressureMinIn,WindSpeedMaxMPH,WindSpeedAvgMPH,GustSpeedMaxMPH,PrecipitationSumIn
2013-1-1,79.2,73.1,68.4,60.2,57.5,54.0,66,50,40,30.18,30.03,8,3,11,0.00
2013-1-2,80.1,54.0,0.0,68.8,48.3,0.0,90,53,54,30.09,29.97,7,1,9,0.00
2013-1-3,80.6,42.4,0.0,71.2,37.9,0.0,94,40,53,30.09,30.00,7,2,8,0.00
2013-1-4,78.8,59.4,0.0,72.9,57.3,0.0,97,73,76,30.21,30.06,6,2,7,0.00
2013-1-5,75.6,71.0,67.8,72.1,69.1,67.3,98,93,74,30.21,30.12,5,2,6,0.06
2013-1-6,81.7,75.8,68.9,73.3,71.7,68.0,98,85,69,30.15,30.03,6,3,7,0.00
2013-1-7,76.5,72.7,69.4,72.0,69.7,65.3,98,89,63,30.12,30.03,10,2,10,0.00
2013-1-8,81.3,76.8,73.4,74.5,72.7,71.5,95,84,68,30.15,30.03,11,5,15,2.22
2013-1-9,80.2,77.3,75.4,73.4,71.6,68.2,89,79,69,30.24,30.12,11,7,19,0.00
2013-1-10,79.2,76.4,74.5,71.3,65.2,58.4,80,62,41,30.27,30.15,12,7,18,0.00
2013-1-11,79.7,76.0,73.9,69.8,66.7,64.3,81,67,53,30.21,30.09,9,6,13,0.00
2013-1-12,79.5,75.7,73.8,70.1,65.8,61.0,81,66,51,30.12,30.03,8,5,10,0.00
2013-1-13,81.3,75.8,73.2,67.8,63.0,58.2,76,58,41,30.06,30.00,11,6,15,0.00
2013-1-14,80.6,75.4,72.3,65.3,60.8,58.0,66,53,42,30.12,30.06,8,4,12,0.00
2013-1-15,79.5,75.3,73.4,66.9,64.0,58.4,73,61,49,30.09,29.97,8,4,9,0.00
2013-1-16,81.5,75.8,72.3,70.3,65.8,58.0,89,65,51,30.03,29.94,9,3,9,1.14
2013-1-17,78.3,51.9,0.0,74.0,48.5,0.0,98,59,72,30.00,29.91,15,3,22,0.46
2013-1-18,70.9,64.1,54.9,59.7,52.3,46.8,77,58,43,30.15,30.00,10,6,11,0.00
2013-1-19,71.1,40.5,0.0,69.5,38.1,0.0,98,51,46,30.12,30.00,6,3,7,0.60
2013-1-20,76.6,42.8,0.0,69.8,40.3,0.0,98,50,62,30.06,29.91,5,2,6,0.69
2013-1-21,79.2,67.1,0.0,71.8,64.5,0.0,98,83,71,29.97,29.85,7,2,7,0.56
2013-1-22,75.0,68.3,0.0,66.6,57.1,0.0,98,63,38,30.09,29.91,9,5,16,0.00
2013-1-23,73.6,69.2,63.7,55.7,50.8,47.1,67,43,33,30.18,30.09,10,5,13,0.00
2013-1-24,72.9,66.3,60.6,57.5,51.8,45.7,85,53,34,30.18,30.06,8,3,11,0.00
2013-1-25,75.6,67.7,60.6,57.2,52.2,47.7,63,49,33,30.18,30.06,7,2,7,0.00
2013-1-26,75.2,69.0,61.7,61.3,56.7,48.7,95,59,39,30.15,30.03,7,3,8,0.00
2013-1-27,76.8,72.6,67.3,63.6,59.6,55.3,82,57,41,30.15,30.06,9,4,10,0.00
2013-1-28,79.3,74.6,72.0,65.0,61.2,58.7,67,55,44,30.18,30.09,9,6,14,0.00
2013-1-29,79.2,74.9,72.5,70.4,66.0,62.4,82,68,59,30.12,30.00,10,5,13,0.00
2013-1-30,80.2,74.9,71.6,70.0,64.7,62.1,87,65,50,30.00,29.85,9,4,13,0.00
2013-1-31,73.6,68.5,61.7,72.6,58.9,36.1,97,68,27,30.03,29.83,13,4,18,0.00
2013-2-1,72.0,64.4,55.2,52.6,45.9,36.8,53,41,34,30.15,30.03,9,6,11,0.00
2013-2-2,72.7,66.2,58.5,50.3,46.1,33.7,52,39,28,30.12,29.97,7,3,8,0.00
2013-2-3,72.5,65.5,59.4,56.5,47.9,40.6,85,46,26,30.03,29.94,10,3,11,0.00
2013-2-4,72.3,64.2,54.7,50.7,45.3,37.5,68,41,24,30.03,29.88,6,2,7,0.00
2013-2-5,77.0,68.6,59.4,60.3,56.5,48.6,83,59,42,29.94,29.85,5,2,8,0.00
2013-2-6,78.4,71.3,64.2,67.8,62.0,57.8,92,68,48,29.97,29.88,9,3,9,0.00
2013-2-7,80.8,74.7,70.9,64.4,62.1,59.4,69,58,44,29.94,29.83,7,3,10,0.00
2013-2-8,81.5,74.7,69.6,71.6,67.3,62.1,98,75,44,29.88,29.77,11,3,13,0.00
2013-2-9,78.1,72.0,67.1,70.0,62.4,56.0,97,67,48,30.03,29.88,9,4,11,0.00
2013-2-10,74.3,72.1,69.8,65.5,59.2,53.0,80,57,43,30.12,30.00,11,7,13,0.00
2013-2-11,79.5,73.9,70.2,63.3,61.3,58.1,70,58,45,30.09,29.97,8,4,9,0.00
2013-2-12,82.2,75.3,70.7,70.3,66.7,63.0,89,70,51,29.97,29.83,9,3,13,0.00
2013-2-13,82.0,76.1,71.8,74.2,71.5,69.3,95,83,62,29.88,29.77,10,3,13,0.00
2013-2-14,79.0,72.3,64.4,75.4,70.1,64.0,98,91,74,29.88,29.71,17,3,17,5.73
2013-2-15,72.3,68.0,64.8,68.5,66.7,64.4,98,95,80,29.88,29.80,7,3,8,2.06
2013-2-16,73.9,66.6,57.2,66.1,55.9,42.9,98,67,25,29.94,29.74,16,8,20,0.00
2013-2-17,59.0,53.3,46.8,43.8,28.9,19.0,52,30,14,30.15,29.94,13,7,17,0.00
2013-2-18,68.7,60.6,49.3,52.9,43.1,31.9,53,42,32,30.18,30.06,9,6,13,0.00
2013-2-19,76.8,71.5,67.3,67.5,58.1,50.1,91,55,44,30.06,29.94,9,4,10,0.00
2013-2-20,76.1,71.0,66.4,67.3,64.2,53.7,98,76,41,29.97,29.88,8,2,8,0.00
2013-2-21,80.8,74.8,70.9,68.4,64.7,59.2,87,66,46,29.94,29.85,7,4,9,0.00
2013-2-22,82.8,76.3,72.1,73.0,70.6,67.0,96,80,56,29.97,29.88,10,5,12,0.00
2013-2-23,83.1,77.1,73.6,74.1,71.7,69.9,96,80,60,29.91,29.80,8,4,13,0.00
2013-2-24,84.4,77.0,71.8,75.4,72.6,67.0,98,84,53,29.85,29.77,6,1,10,0.00
2013-2-25,84.0,76.9,71.4,76.4,72.6,68.9,96,84,66,29.80,29.68,9,2,10,0.00
2013-2-26,83.5,78.5,75.2,74.6,72.6,67.2,92,79,56,29.77,29.68,9,3,13,0.00
2013-2-27,76.8,72.1,67.5,74.3,67.8,58.2,98,84,45,29.83,29.71,7,3,9,0.49
2013-2-28,70.2,66.4,61.9,66.9,53.0,39.4,97,57,24,29.88,29.77,10,4,12,0.00
2013-3-1,66.7,63.9,60.3,60.7,49.6,44.3,86,51,40,29.85,29.77,9,5,13,0.00
2013-3-2,66.0,59.7,55.6,46.4,39.9,32.5,53,38,25,29.91,29.83,16,7,18,0.00
2013-3-3,63.0,56.9,52.5,46.5,40.6,37.2,68,45,29,30.03,29.85,13,6,15,0.00
2013-3-4,63.9,55.7,45.9,41.2,36.2,30.9,58,39,21,30.09,29.97,11,4,11,0.00
2013-3-5,73.9,56.2,0.0,54.9,43.4,0.0,74,46,36,30.06,29.94,7,2,8,0.00
2013-3-6,77.2,66.1,0.0,63.8,49.5,0.0,92,51,15,29.97,29.83,16,6,16,0.00
2013-3-7,68.5,59.9,50.2,56.4,42.0,32.9,82,43,22,30.03,29.94,11,5,13,0.00
2013-3-8,71.4,64.3,56.5,56.1,50.0,42.0,91,54,28,30.06,29.97,8,3,10,0.00
2013-3-9,73.4,66.1,58.5,56.1,50.9,46.9,83,50,35,30.03,29.97,10,4,12,0.00
2013-3-10,74.7,70.5,66.7,60.7,52.6,49.0,65,44,34,30.03,29.91,9,6,11,0.00
2013-3-11,78.4,72.9,69.4,61.0,57.4,54.5,66,50,38,29.94,29.80,11,5,11,0.00
2013-3-12,80.1,74.3,71.4,70.2,65.0,59.5,79,67,54,29.85,29.77,8,4,14,0.00
2013-3-13,73.2,67.1,59.2,66.9,56.0,41.4,93,63,27,29.94,29.83,10,5,15,0.00
2013-3-14,69.6,62.7,57.2,55.8,45.8,34.7,85,47,20,30.03,29.91,12,6,15,0.00
2013-3-15,70.7,63.7,55.8,52.2,46.6,39.3,67,45,32,30.06,29.94,8,4,10,0.00
2013-3-16,76.3,66.7,0.0,56.1,51.3,0.0,80,51,33,30.00,29.88,6,2,8,0.00
2013-3-17,77.9,70.5,63.1,59.5,55.7,51.7,74,52,38,29.91,29.80,6,2,13,0.00
2013-3-18,80.8,73.6,69.1,71.2,64.9,58.7,97,69,52,29.83,29.71,9,4,11,0.14
2013-3-19,79.2,73.2,69.8,71.5,68.5,60.1,98,83,45,29.74,29.56,8,2,10,0.00
2013-3-20,82.0,73.5,67.1,71.5,66.0,54.0,98,75,38,29.65,29.47,13,2,16,0.00
2013-3-21,72.0,67.8,64.4,64.2,54.2,44.2,94,57,29,29.59,29.50,10,4,12,0.00
2013-3-22,77.2,70.4,61.2,70.9,57.9,49.2,89,58,39,29.62,29.53,6,2,11,0.00
2013-3-23,84.0,77.3,72.3,76.8,73.4,70.9,98,86,66,29.59,29.38,8,3,15,0.00
2013-3-24,89.4,80.5,74.5,75.6,70.2,63.1,98,69,34,29.44,29.21,9,4,13,0.00
2013-3-25,78.4,74.8,67.5,74.8,59.0,39.3,97,57,22,32.28,25.28,11,5,15,0.00
2013-3-26,67.1,62.4,55.2,42.5,36.3,29.2,41,28,15,27.32,25.28,14,9,18,0.00
2013-3-27,66.6,58.5,48.9,45.4,40.5,33.6,54,41,28,25.28,25.28,10,5,15,0.00
2013-3-28,70.5,62.9,54.9,46.4,41.5,31.3,53,36,17,25.28,25.28,8,4,11,0.00
2013-3-29,74.1,66.6,59.4,50.5,46.4,38.3,48,39,31,25.28,25.28,9,4,10,0.00
2013-3-30,73.9,68.6,66.4,51.5,49.1,46.9,44,40,31,25.28,25.28,7,4,10,0.00
2013-3-31,81.7,73.7,68.0,66.1,59.4,50.7,75,54,40,25.28,25.28,8,4,11,0.00
2013-4-1,84.0,76.2,72.5,73.5,67.2,58.7,91,70,35,25.28,25.28,8,3,11,0.00
2013-4-2,80.1,73.8,67.3,68.4,64.6,60.1,98,69,43,25.28,25.28,8,4,9,0.00
2013-4-3,83.8,77.3,72.9,72.1,67.7,64.5,87,68,47,25.28,25.28,7,4,10,0.00
2013-4-4,85.8,76.3,67.8,73.8,71.3,67.3,98,82,57,25.28,25.28,9,4,12,4.58
2013-4-5,73.6,69.7,67.3,72.5,68.3,65.5,98,94,76,25.28,25.28,10,2,12,1.81
2013-4-6,77.2,69.5,61.2,64.1,59.9,54.5,98,68,43,25.28,25.28,9,6,15,0.00
2013-4-7,77.9,73.6,71.8,62.9,59.3,56.3,66,53,40,25.28,25.28,10,6,14,0.00
2013-4-8,80.6,75.2,71.1,61.9,56.5,53.2,59,44,32,25.28,25.28,7,4,10,0.00
2013-4-9,81.5,76.3,73.4,64.5,62.6,59.8,65,55,42,25.28,25.28,10,5,10,0.00
2013-4-10,82.8,76.5,0.0,73.2,68.0,0.0,86,69,53,25.28,25.28,10,6,13,0.00
2013-4-11,84.6,77.5,0.0,75.4,70.3,0.0,92,73,50,25.28,25.28,11,5,11,0.00
2013-4-12,87.3,80.5,77.0,78.0,75.8,73.6,94,83,63,25.28,25.28,7,4,10,0.00
2013-4-13,83.1,57.2,0.0,76.7,55.4,0.0,95,66,75,25.28,25.28,5,1,5,1.17
2013-4-14,87.6,64.0,0.0,76.8,58.4,0.0,95,60,50,25.28,25.28,6,2,12,0.00
2013-4-15,88.9,79.5,72.7,78.5,74.4,69.9,96,82,51,25.28,25.28,7,2,15,0.57
2013-4-16,85.6,76.0,0.0,77.6,71.2,0.0,98,80,51,25.28,25.28,7,3,8,1.24
2013-4-17,82.9,78.6,75.9,73.6,68.3,63.1,88,66,44,25.28,25.28,8,2,10,0.00
2013-4-18,87.8,81.0,76.5,73.6,68.4,65.4,79,60,41,25.28,25.28,8,4,11,0.00
2013-4-19,88.9,76.8,0.0,74.2,65.9,0.0,81,59,40,25.28,25.28,9,4,12,0.00
2013-4-20,89.6,66.3,0.0,81.5,63.0,0.0,98,73,50,25.28,25.28,12,3,13,7.58
2013-4-21,85.6,77.9,72.9,75.8,71.8,63.6,98,79,48,25.28,25.28,7,3,9,0.00
2013-4-22,86.2,76.2,71.6,74.6,70.5,63.6,98,81,40,25.28,25.28,8,2,8,0.71
2013-4-23,81.3,75.5,69.4,70.7,63.6,55.1,98,64,39,25.28,25.28,12,5,15,0.00
2013-4-24,83.5,77.6,73.6,60.5,57.9,55.3,55,42,32,25.28,25.28,10,5,11,0.00
2013-4-25,81.0,76.7,73.9,57.8,55.6,53.5,47,39,31,25.28,25.28,9,5,10,0.00
2013-4-26,81.1,76.2,71.4,61.2,58.0,54.7,60,45,36,25.28,25.28,9,5,13,0.00
2013-4-27,81.9,77.1,73.8,66.4,58.5,54.7,71,45,33,25.28,25.28,9,6,12,0.00
2013-4-28,83.3,77.7,73.2,62.1,57.8,54.0,61,42,29,25.28,25.28,9,6,12,0.00
2013-4-29,84.9,78.2,73.6,69.5,63.8,57.5,72,54,40,25.28,25.28,10,5,13,0.00
2013-4-30,88.2,77.5,71.2,76.5,71.0,64.7,98,78,40,25.28,25.28,6,2,10,1.39
2013-5-1,85.8,77.5,71.4,74.3,71.5,67.0,98,80,46,25.28,25.28,13,2,13,0.45
2013-5-2,79.7,73.9,68.0,75.0,70.9,66.3,98,89,69,25.28,25.28,15,5,18,8.09
2013-5-3,86.7,76.3,69.6,73.0,68.4,58.2,98,76,32,25.28,25.28,9,2,12,1.20
2013-5-4,87.1,77.5,70.0,71.8,64.3,57.8,97,62,29,25.28,25.28,10,4,14,0.00
2013-5-5,81.1,74.8,70.0,69.1,58.5,44.6,94,54,21,25.28,25.28,12,6,12,0.00
2013-5-6,84.4,74.2,64.0,58.6,54.5,49.2,69,43,25,25.28,25.28,8,3,8,0.00
2013-5-7,85.5,74.8,66.4,62.3,57.1,50.1,83,48,22,25.28,25.28,8,4,10,0.00
2013-5-8,83.7,75.5,66.7,62.1,56.6,49.5,68,45,25,25.28,25.28,6,2,8,0.00
2013-5-9,86.5,78.2,69.3,72.5,63.2,53.7,76,53,40,25.28,25.28,7,3,9,0.00
2013-5-10,88.0,81.4,74.5,74.1,69.7,61.7,89,63,34,25.28,25.28,6,3,8,0.00
2013-5-11,90.3,81.6,75.2,76.1,72.1,66.3,95,70,40,25.28,25.28,9,3,12,1.10
2013-5-12,90.1,80.4,70.3,75.3,72.1,66.2,98,75,39,25.28,25.28,9,2,13,0.25
2013-5-13,87.1,78.6,72.7,76.0,69.0,62.3,98,70,37,0.00,0.00,11,2,11,0.00
2013-5-14,81.1,77.4,75.0,63.3,54.2,48.3,53,36,27,0.00,0.00,9,5,13,0.00
2013-5-15,82.6,77.1,73.2,57.4,52.9,47.8,49,34,23,0.00,0.00,9,5,12,0.00
2013-5-16,84.6,78.2,73.4,57.4,54.2,49.4,42,34,25,0.00,0.00,7,5,9,0.00
2013-5-17,86.9,80.3,76.1,70.3,64.9,56.4,74,52,40,0.00,0.00,8,4,10,0.00
2013-5-18,88.2,81.8,77.2,73.6,67.8,64.7,79,56,40,0.00,0.00,7,3,11,0.00
2013-5-19,86.7,80.9,77.2,68.9,64.4,60.8,65,50,35,0.00,0.00,7,4,12,0.00
2013-5-20,82.6,45.5,0.0,75.3,41.5,0.0,97,43,63,0.00,0.00,10,3,10,2.61
2013-5-21,81.0,27.8,0.0,74.0,24.9,0.0,97,25,54,0.00,0.00,9,4,13,1.56
2013-5-22,87.1,33.1,0.0,78.5,30.9,0.0,91,35,48,0.00,0.00,6,2,13,4.21
2013-5-23,91.6,80.8,0.0,76.3,69.4,0.0,94,65,25,0.00,0.00,10,3,13,0.00
2013-5-24,86.5,22.6,0.0,75.5,19.6,0.0,93,18,47,0.00,0.00,7,2,8,0.00
2013-5-25,83.8,19.0,0.0,73.5,14.6,0.0,80,11,33,0.00,0.00,10,5,12,0.00
2013-5-26,85.3,46.5,0.0,60.7,34.3,0.0,47,23,30,0.00,0.00,10,6,14,0.00
2013-5-27,86.4,70.1,0.0,69.5,56.7,0.0,67,45,41,0.00,0.00,10,7,15,0.00
2013-5-28,83.8,55.0,0.0,75.2,49.9,0.0,93,51,54,0.00,0.00,12,7,17,1.54
2013-5-29,80.1,69.6,0.0,74.9,66.0,0.0,98,77,60,0.00,0.00,13,5,17,4.03
2013-5-30,84.0,78.8,74.1,75.1,71.8,67.8,98,75,59,0.00,0.00,14,9,24,0.15
2013-5-31,86.0,79.9,74.7,76.5,73.5,69.4,98,78,52,0.00,0.00,12,6,15,0.66
2013-6-1,86.5,68.9,0.0,78.7,66.3,0.0,98,78,61,0.00,0.00,7,2,11,6.84
2013-6-2,89.8,80.5,74.1,78.8,72.9,66.8,98,75,43,0.00,0.00,6,1,8,0.00
2013-6-3,88.9,81.0,75.7,77.0,73.1,66.2,96,75,42,0.00,0.00,6,1,7,1.44
2013-6-4,85.1,78.7,72.3,79.0,74.3,70.7,98,85,56,0.00,0.00,4,1,6,2.39
2013-6-5,84.4,79.7,0.0,78.2,74.0,0.0,91,77,66,0.00,0.00,9,4,13,0.00
2013-6-6,90.1,68.1,0.0,79.5,64.2,0.0,96,70,56,0.00,0.00,10,4,12,5.88
2013-6-7,91.2,75.7,0.0,77.8,72.6,0.0,98,86,40,0.00,0.00,6,1,12,7.15
2013-6-8,90.9,80.8,0.0,79.4,74.4,0.0,98,78,45,0.00,0.00,6,2,9,0.00
2013-6-9,88.7,82.3,0.0,74.5,69.1,0.0,78,57,40,0.00,0.00,9,5,13,0.00
2013-6-10,89.2,81.1,0.0,76.9,70.9,0.0,83,65,42,0.00,0.00,8,5,10,0.00
2013-6-11,90.7,55.1,0.0,79.3,48.5,0.0,86,44,38,0.00,0.00,6,3,10,0.00
2013-6-12,86.9,80.5,0.0,77.7,73.6,0.0,89,73,61,0.00,0.00,5,1,6,0.00
2013-6-13,91.9,83.7,77.2,78.6,70.5,59.2,94,62,27,0.00,0.00,6,1,6,0.00
2013-6-14,92.1,80.4,0.0,76.7,68.9,0.0,98,64,27,0.00,0.00,9,2,12,5.67
2013-6-15,89.2,81.7,0.0,77.6,70.0,0.0,98,64,38,0.00,0.00,6,2,8,0.00
2013-6-16,91.2,84.7,78.3,76.3,70.1,65.8,88,56,38,0.00,0.00,7,2,10,0.00
2013-6-17,92.5,84.3,0.0,71.1,66.5,0.0,62,47,31,0.00,0.00,7,2,7,0.00
2013-6-18,93.9,66.4,0.0,71.7,51.3,0.0,64,34,30,0.00,0.00,6,3,8,0.00
2013-6-19,94.6,86.6,0.0,74.6,68.8,0.0,74,49,29,0.00,0.00,6,2,9,0.00
2013-6-20,91.8,75.1,0.0,83.9,62.9,0.0,98,54,36,0.00,0.00,8,2,8,1.77
2013-6-21,91.6,84.6,81.3,73.7,67.9,61.8,71,51,30,0.00,0.00,5,2,8,0.00
2013-6-22,90.3,85.0,81.1,71.7,65.5,61.9,63,45,31,0.00,0.00,7,4,9,0.00
2013-6-23,91.2,84.7,78.8,71.9,66.2,60.9,68,47,31,0.00,0.00,7,3,11,0.00
2013-6-24,89.1,84.2,80.6,71.7,66.7,63.0,68,48,35,0.00,0.00,9,5,10,0.00
2013-6-25,89.6,75.8,0.0,72.1,61.0,0.0,65,45,36,0.00,0.00,8,4,10,0.00
2013-6-26,92.7,85.5,80.2,75.0,68.3,62.8,79,50,30,0.00,0.00,6,3,8,0.00
2013-6-27,90.5,85.0,82.2,70.1,67.2,60.0,59,48,34,0.00,0.00,4,2,6,0.00
2013-6-28,93.6,84.2,0.0,75.9,67.3,0.0,84,49,32,0.00,0.00,8,2,8,0.00
2013-6-29,93.4,67.7,0.0,86.3,56.3,0.0,91,45,37,0.00,0.00,7,2,8,2.57
2013-6-30,91.9,69.6,0.0,78.3,58.5,0.0,94,49,37,0.00,0.00,8,2,10,2.30
2013-7-1,92.1,84.3,79.5,78.0,73.4,67.8,89,66,39,0.00,0.00,7,3,10,0.00
2013-7-2,91.8,84.2,0.0,78.8,73.4,0.0,89,65,42,0.00,0.00,7,3,8,0.00
2013-7-3,91.4,84.4,80.1,77.1,71.7,64.7,88,61,39,0.00,0.00,8,4,12,0.00
2013-7-4,90.0,74.7,0.0,74.8,60.8,0.0,83,46,38,0.00,0.00,8,4,11,2.50
2013-7-5,88.5,36.2,0.0,77.9,31.8,0.0,85,29,42,0.00,0.00,9,5,12,8.00
2013-7-6,88.9,42.1,0.0,73.5,34.9,0.0,75,28,38,0.00,0.00,8,3,12,0.54
2013-7-7,0.0,0.0,0.0,0.0,0.0,0.0,0,0,100,0.00,0.00,10,5,12,0.00
2013-7-8,0.0,0.0,0.0,0.0,0.0,0.0,0,0,100,0.00,0.00,9,4,11,4.32
2013-7-9,83.3,6.9,0.0,70.3,5.7,0.0,63,5,51,0.00,0.00,8,3,8,0.00
2013-7-10,0.0,0.0,0.0,0.0,0.0,0.0,0,0,100,0.00,0.00,4,1,5,0.00
2013-7-11,92.7,58.3,0.0,70.5,44.9,0.0,59,29,33,0.00,0.00,6,2,8,0.00
2013-7-12,93.4,41.8,0.0,74.0,32.1,0.0,65,21,31,0.00,0.00,6,1,8,0.00
2013-7-13,0.0,0.0,0.0,0.0,0.0,0.0,0,0,100,0.00,0.00,6,0,8,6.03
2013-7-14,88.2,35.0,0.0,74.3,30.9,0.0,98,32,36,0.00,0.00,7,2,9,2.53
2013-7-15,83.7,39.7,0.0,75.6,37.3,0.0,98,43,46,0.00,0.00,9,3,10,0.00
2013-7-16,81.7,6.8,0.0,70.3,5.8,0.0,62,5,61,0.00,0.00,12,6,17,0.36
2013-7-17,78.6,16.0,0.0,76.0,15.4,0.0,98,18,81,0.00,0.00,8,3,10,5.50
2013-7-18,76.6,41.2,0.0,75.4,40.7,0.0,98,53,77,0.00,0.00,9,2,9,3.75
2013-7-19,89.8,63.3,0.0,77.7,58.1,0.0,98,61,45,0.00,0.00,6,3,8,0.00
2013-7-20,86.4,53.0,0.0,78.4,48.9,0.0,88,50,56,0.00,0.00,7,3,9,0.00
2013-7-21,80.8,27.8,0.0,76.8,26.1,0.0,88,28,75,0.00,0.00,5,1,6,0.00
2013-7-22,0.0,0.0,0.0,0.0,0.0,0.0,0,0,100,0.00,0.00,6,3,8,0.00
2013-7-23,91.9,32.1,0.0,75.7,26.6,0.0,83,21,39,0.00,0.00,6,2,7,0.00
2013-7-24,88.9,42.5,0.0,77.8,38.9,0.0,90,40,46,0.00,0.00,8,2,8,0.00
2013-7-25,89.2,3.7,0.0,60.8,2.5,0.0,30,1,30,0.00,0.00,7,2,11,0.00
2013-7-26,77.9,1.8,0.0,77.4,1.8,0.0,98,2,98,0.00,0.00,8,2,8,1.35
2013-7-27,0.0,0.0,0.0,0.0,0.0,0.0,0,0,100,0.00,0.00,8,1,8,0.78
2013-7-28,0.0,0.0,0.0,0.0,0.0,0.0,0,0,100,0.00,0.00,4,1,7,0.54
2013-7-29,0.0,0.0,0.0,0.0,0.0,0.0,0,0,100,0.00,0.00,7,3,8,0.00
2013-7-30,0.0,0.0,0.0,0.0,0.0,0.0,0,0,100,0.00,0.00,6,3,10,1.24
2013-7-31,90.7,4.0,0.0,66.1,2.9,0.0,36,2,36,0.00,0.00,6,4,10,0.00
2013-8-1,84.9,18.7,0.0,67.8,15.0,0.0,56,11,41,0.00,0.00,7,4,11,0.00
2013-8-2,91.2,64.5,0.0,75.4,52.4,0.0,84,41,35,0.00,0.00,6,2,8,0.38
2013-8-3,0.0,0.0,0.0,0.0,0.0,0.0,0,0,100,0.00,0.00,10,1,12,0.56
2013-8-4,0.0,0.0,0.0,0.0,0.0,0.0,0,0,100,0.00,0.00,6,1,8,0.22
2013-8-5,84.7,1.9,0.0,77.3,1.8,0.0,74,2,74,0.00,0.00,7,2,9,2.74
2013-8-6,87.4,12.5,0.0,73.6,10.9,0.0,79,10,52,0.00,0.00,4,1,6,0.00
2013-8-7,92.5,86.3,81.7,76.3,70.9,66.1,80,55,36,0.00,0.00,6,2,7,0.00
2013-8-8,90.9,71.5,0.0,75.6,56.5,0.0,74,40,28,0.00,0.00,8,4,12,0.00
2013-8-9,0.0,0.0,0.0,0.0,0.0,0.0,0,0,100,0.00,0.00,7,4,14,3.84
2013-8-10,90.9,7.7,0.0,66.5,5.7,0.0,38,3,36,0.00,0.00,7,4,11,0.00
2013-8-11,90.7,31.9,0.0,71.7,25.5,0.0,60,18,39,0.00,0.00,8,4,9,0.00
2013-8-12,90.3,84.8,78.3,77.3,68.1,64.3,96,51,35,0.00,0.00,7,4,8,0.00
2013-8-13,86.0,83.3,82.4,73.5,71.7,69.4,68,62,50,0.00,0.00,4,2,6,0.00
2013-8-14,83.8,83.4,82.9,68.4,66.4,64.7,53,49,46,0.00,0.00,5,3,8,0.00
2013-8-15,87.1,82.3,75.4,84.7,75.2,69.3,98,76,55,0.00,0.00,4,1,5,1.53
2013-8-16,92.1,85.6,80.4,78.8,73.4,66.2,93,63,38,0.00,0.00,6,2,8,0.00
2013-8-17,91.0,86.5,83.3,77.7,72.1,65.5,77,56,39,0.00,0.00,6,3,9,0.00
2013-8-18,90.5,85.3,82.4,77.2,71.9,67.6,79,58,42,0.00,0.00,8,4,13,0.00
2013-8-19,90.7,80.8,0.0,77.9,67.5,0.0,84,54,38,0.00,0.00,9,4,11,0.00
2013-8-20,90.5,84.7,0.0,77.5,69.5,0.0,89,54,35,0.00,0.00,8,4,10,2.36
2013-8-21,90.5,84.6,80.4,78.6,74.2,68.8,88,66,42,0.00,0.00,8,5,13,1.18
2013-8-22,90.1,85.0,76.5,79.7,73.2,68.2,98,64,42,0.00,0.00,7,4,15,4.15
2013-8-23,90.7,84.7,81.7,74.4,70.7,66.3,73,56,39,0.00,0.00,7,3,10,2.42
2013-8-24,90.9,85.1,79.0,74.0,70.1,64.6,79,55,36,0.00,0.00,7,2,10,1.40
2013-8-25,85.8,82.0,78.3,78.4,72.7,67.0,94,69,48,0.00,0.00,7,2,8,0.00
2013-8-26,90.0,83.9,80.1,74.2,68.6,63.8,78,54,34,0.00,0.00,7,2,8,0.00
2013-8-27,87.3,81.2,76.1,75.8,69.3,59.1,93,63,30,0.00,0.00,4,1,8,0.00
2013-8-28,88.3,82.5,78.3,77.2,69.7,63.9,91,60,37,0.00,0.00,6,2,9,1.24
2013-8-29,89.6,83.7,76.5,75.8,70.8,65.8,90,60,40,0.00,0.00,7,2,7,0.00
2013-8-30,92.7,85.0,78.4,75.6,68.2,61.5,85,52,31,0.00,0.00,5,2,7,0.00
2013-8-31,90.7,82.5,77.7,76.1,71.2,64.9,91,64,38,0.00,0.00,6,1,6,0.00
2013-9-1,88.5,82.5,77.2,77.3,72.5,64.9,92,68,43,0.00,0.00,5,1,6,0.00
2013-9-2,90.9,79.1,0.0,78.3,73.1,0.0,98,79,39,0.00,0.00,6,1,9,1.10
2013-9-3,88.3,81.9,75.6,76.7,74.2,71.3,98,74,51,0.00,0.00,6,2,7,0.00
2013-9-4,87.4,83.7,81.0,78.7,74.0,70.3,87,67,55,0.00,0.00,5,2,6,0.00
2013-9-5,90.3,84.8,80.6,78.8,71.8,65.8,91,60,38,0.00,0.00,6,3,11,0.70
2013-9-6,91.2,85.5,82.0,78.6,71.5,64.8,87,58,34,0.00,0.00,6,2,7,0.00
2013-9-7,89.2,81.5,76.6,75.9,72.4,66.9,88,69,45,0.00,0.00,9,2,10,0.00
2013-9-8,88.9,81.2,75.7,75.5,70.0,63.9,92,65,39,0.00,0.00,6,2,8,0.00
2013-9-9,89.2,83.0,77.4,78.1,69.6,62.8,97,60,33,0.00,0.00,7,3,10,3.46
2013-9-10,88.2,75.1,0.0,78.5,66.2,0.0,97,62,44,0.00,0.00,10,4,13,3.37
2013-9-11,87.1,81.0,0.0,77.9,70.2,0.0,84,63,47,0.00,0.00,7,3,10,3.30
2013-9-12,85.3,74.4,0.0,76.2,67.2,0.0,91,67,53,0.00,0.00,4,1,6,0.77
2013-9-13,89.2,82.8,75.9,78.0,69.5,59.8,94,62,31,0.00,0.00,6,2,6,0.00
2013-9-14,89.2,84.1,78.3,76.6,68.9,63.6,86,55,37,0.00,0.00,7,2,8,0.00
2013-9-15,84.4,76.9,0.0,78.3,69.6,0.0,89,68,55,0.00,0.00,12,4,13,0.00
2013-9-16,82.4,30.8,0.0,78.8,28.5,0.0,89,29,64,0.00,0.00,10,5,12,0.00
2013-9-17,82.2,60.0,0.0,76.4,54.7,0.0,83,55,61,0.00,0.00,8,4,9,0.00
2013-9-18,82.9,51.0,0.0,76.2,46.0,0.0,95,46,55,0.00,0.00,12,2,12,0.00
2013-9-19,88.0,81.5,75.6,76.3,71.1,64.4,94,67,43,0.00,0.00,7,3,10,0.00
2013-9-20,86.4,81.9,78.4,74.8,62.8,56.7,86,45,29,0.00,0.00,9,4,10,1.40
2013-9-21,87.1,82.2,79.2,70.8,66.2,62.4,68,51,35,0.00,0.00,6,3,8,0.00
2013-9-22,91.0,84.4,78.6,75.3,70.4,64.7,86,58,36,0.00,0.00,7,2,8,0.00
2013-9-23,90.1,81.4,77.0,79.9,76.1,70.8,98,82,51,0.00,0.00,5,1,6,0.40
2013-9-24,90.3,82.8,77.0,82.5,73.9,64.5,97,72,41,0.00,0.00,10,2,11,0.00
2013-9-25,88.3,80.3,76.6,79.9,73.1,64.5,96,75,45,0.00,0.00,10,1,11,6.52
2013-9-26,90.1,81.7,77.2,79.7,74.4,66.5,93,76,38,0.00,0.00,11,2,13,0.00
2013-9-27,87.1,81.1,75.9,76.8,68.2,53.5,96,62,23,0.00,0.00,8,3,11,0.00
2013-9-28,86.5,80.0,75.4,74.9,69.3,61.6,91,67,35,0.00,0.00,7,3,10,1.62
2013-9-29,86.2,81.9,77.0,71.6,61.4,56.7,76,43,28,0.00,0.00,7,3,8,0.00
2013-9-30,87.3,82.6,78.8,64.1,59.7,57.3,53,38,28,0.00,0.00,6,3,8,0.00
2013-10-1,87.6,83.1,80.8,64.8,61.2,58.5,48,39,31,0.00,0.00,7,4,9,0.00
2013-10-2,84.9,82.0,80.1,73.0,66.5,62.7,74,52,40,0.00,0.00,9,5,10,0.00
2013-10-3,87.1,82.6,79.0,72.9,66.7,61.8,73,52,38,0.00,0.00,7,3,9,0.00
2013-10-4,86.9,82.5,80.2,67.2,61.6,57.4,56,41,30,0.00,0.00,6,3,8,0.00
2013-10-5,87.1,81.9,75.6,69.8,63.1,58.1,77,46,30,0.00,0.00,6,2,8,0.00
2013-10-6,88.7,83.3,78.4,75.7,63.5,58.1,88,45,28,0.00,0.00,5,1,8,0.00
2013-10-7,90.3,80.3,74.8,76.9,68.8,58.5,98,66,27,0.00,0.00,10,1,12,9.29
2013-10-8,88.3,79.8,75.9,81.3,75.3,67.1,98,86,43,0.00,0.00,8,1,8,1.02
2013-10-9,84.9,78.4,73.2,75.1,71.8,67.3,98,78,49,0.00,0.00,9,3,10,0.00
2013-10-10,85.1,79.6,73.4,75.2,67.2,59.2,97,63,37,0.00,0.00,9,4,10,1.72
2013-10-11,84.0,80.2,74.7,66.2,58.2,53.4,68,39,30,0.00,0.00,7,3,10,0.00
2013-10-12,84.7,79.8,73.0,62.4,55.6,51.1,59,35,24,0.00,0.00,5,2,7,0.00
2013-10-13,84.6,79.8,75.0,68.3,55.7,47.6,75,37,20,0.00,0.00,8,2,9,0.00
2013-10-14,84.0,79.3,72.7,67.5,58.9,53.2,77,43,29,0.00,0.00,6,2,8,0.00
2013-10-15,83.7,79.2,73.2,70.6,63.1,57.4,88,52,36,0.00,0.00,8,3,8,0.00
2013-10-16,83.7,79.1,75.2,73.4,62.5,56.0,90,51,32,0.00,0.00,6,2,8,0.00
2013-10-17,85.1,80.5,75.2,69.7,63.0,58.6,76,48,33,0.00,0.00,5,2,8,0.00
2013-10-18,86.7,81.7,77.0,72.0,63.2,60.0,81,46,34,0.00,0.00,5,2,7,0.00
2013-10-19,88.7,83.0,79.2,66.2,63.6,61.8,56,44,33,0.00,0.00,5,2,6,0.00
2013-10-20,87.3,82.3,79.3,75.2,70.4,65.7,77,62,43,0.00,0.00,4,1,6,0.00
2013-10-21,89.8,84.0,80.4,75.8,70.9,65.2,82,60,38,0.00,0.00,4,1,6,0.00
2013-10-22,89.4,83.8,79.3,74.7,71.5,68.2,81,61,42,0.00,0.00,5,1,9,0.00
2013-10-23,87.1,80.7,77.9,76.8,69.3,61.5,91,64,34,0.00,0.00,8,2,8,0.00
2013-10-24,80.2,77.4,74.1,61.6,56.1,50.1,52,39,28,0.00,0.00,7,4,10,0.00
2013-10-25,82.6,77.7,72.1,57.9,53.0,48.2,51,33,22,0.00,0.00,9,4,13,0.00
2013-10-26,82.2,78.3,74.5,53.0,50.6,47.9,34,29,22,0.00,0.00,7,4,11,0.00
2013-10-27,82.2,75.8,69.4,53.5,51.3,47.5,45,34,22,0.00,0.00,6,2,8,0.00
2013-10-28,82.6,78.5,75.2,55.1,52.2,46.5,38,31,20,0.00,0.00,7,4,9,0.00
2013-10-29,83.3,79.4,76.6,58.2,55.2,52.2,40,34,30,0.00,0.00,9,4,11,0.00
2013-10-30,82.6,79.2,76.5,58.7,55.7,53.3,42,35,29,0.00,0.00,8,5,13,0.00
2013-10-31,85.1,80.5,77.4,66.6,60.0,54.5,57,41,29,0.00,0.00,7,4,11,0.00
2013-11-1,87.1,81.3,78.3,68.7,65.1,62.5,62,51,39,0.00,0.00,8,3,8,0.00
2013-11-2,88.3,80.0,73.4,73.3,64.3,49.9,91,56,19,0.00,0.00,9,2,9,0.00
2013-11-3,81.0,75.1,69.6,62.4,55.4,50.3,71,43,29,0.00,0.00,11,5,18,0.00
2013-11-4,80.8,77.2,75.0,61.2,54.5,43.6,50,37,21,0.00,0.00,12,7,14,0.00
2013-11-5,81.1,74.6,0.0,73.0,60.2,0.0,92,52,35,0.00,0.00,12,8,20,1.46
2013-11-6,82.9,51.6,0.0,67.9,41.1,0.0,65,32,38,0.00,0.00,10,5,19,0.00
2013-11-7,83.7,56.3,0.0,71.4,47.8,0.0,93,45,40,0.00,0.00,5,2,6,0.00
2013-11-8,82.8,50.9,0.0,74.9,45.0,0.0,96,46,40,0.00,0.00,12,4,17,1.42
2013-11-9,80.2,58.0,0.0,74.4,53.9,0.0,95,60,68,0.00,0.00,12,7,19,0.14
2013-11-10,82.9,79.2,77.5,72.7,66.2,61.5,81,58,42,0.00,0.00,10,5,11,0.00
2013-11-11,82.2,78.8,77.2,67.1,62.8,59.1,64,50,41,0.00,0.00,7,4,10,0.00
2013-11-12,82.2,73.2,0.0,69.3,58.2,0.0,79,47,38,0.00,0.00,6,2,8,0.00
2013-11-13,77.2,50.2,0.0,69.4,41.0,0.0,90,39,37,0.00,0.00,14,6,20,1.08
2013-11-14,76.3,63.9,0.0,57.6,44.9,0.0,48,32,32,0.00,0.00,12,6,14,0.00
2013-11-15,81.0,72.3,0.0,72.4,56.6,0.0,87,45,35,0.00,0.00,9,5,12,0.00
2013-11-16,79.9,22.9,0.0,68.0,18.5,0.0,64,15,41,0.00,0.00,9,4,12,0.00
2013-11-17,84.9,22.3,0.0,68.0,17.7,0.0,65,13,42,0.00,0.00,7,4,10,0.00
2013-11-18,76.3,3.2,0.0,73.0,3.0,0.0,87,4,87,0.00,0.00,4,1,6,0.00
2013-11-19,81.7,37.0,0.0,75.4,34.9,0.0,96,40,62,0.00,0.00,6,2,7,0.00
2013-11-20,82.2,68.9,0.0,75.0,64.9,0.0,98,75,63,0.00,0.00,5,2,8,0.00
2013-11-21,79.7,76.0,73.0,75.9,73.5,69.9,98,90,69,0.00,0.00,10,4,16,6.87
2013-11-22,79.7,70.7,0.0,74.7,64.7,0.0,98,69,62,0.00,0.00,10,6,14,1.18
2013-11-23,79.3,45.6,0.0,72.7,41.4,0.0,88,44,64,0.00,0.00,10,4,11,0.00
2013-11-24,76.3,9.5,0.0,67.7,8.4,0.0,69,9,69,0.00,0.00,11,4,16,1.37
2013-11-25,0.0,0.0,0.0,0.0,0.0,0.0,0,0,100,0.00,0.00,14,8,21,0.00
2013-11-26,0.0,0.0,0.0,0.0,0.0,0.0,0,0,100,0.00,0.00,12,4,15,0.00
2013-11-27,62.8,2.6,0.0,48.0,2.0,0.0,49,2,49,0.00,0.00,12,5,14,1.11
2013-11-28,0.0,0.0,0.0,0.0,0.0,0.0,0,0,100,0.00,0.00,9,6,13,0.00
2013-11-29,0.0,0.0,0.0,0.0,0.0,0.0,0,0,100,0.00,0.00,10,5,15,0.00
2013-11-30,74.8,10.7,0.0,63.9,9.1,0.0,86,10,38,0.00,0.00,10,4,14,0.46
2013-12-1,77.5,47.1,0.0,71.9,43.6,0.0,98,54,38,0.00,0.00,6,2,10,1.57
2013-12-2,68.7,32.3,0.0,68.2,31.8,0.0,98,45,71,0.00,0.00,8,3,8,0.00
2013-12-3,71.6,11.5,0.0,65.3,10.6,0.0,95,13,57,0.00,0.00,3,0,5,0.00
2013-12-4,81.9,27.5,0.0,67.5,22.4,0.0,93,21,41,0.00,0.00,5,1,6,0.00
2013-12-5,81.5,19.7,0.0,62.5,15.5,0.0,54,12,42,0.00,0.00,7,3,10,0.00
2013-12-6,77.0,3.8,0.0,58.2,2.8,0.0,45,2,41,0.00,0.00,7,3,12,0.00
2013-12-7,81.7,29.8,0.0,67.5,22.9,0.0,61,17,39,0.00,0.00,8,3,12,0.81
2013-12-8,83.3,35.1,0.0,66.3,27.0,0.0,63,20,33,0.00,0.00,9,4,11,1.01
2013-12-9,80.2,12.5,0.0,67.2,9.4,0.0,68,7,31,0.00,0.00,9,3,12,0.00
2013-12-10,76.3,3.2,0.0,67.4,2.8,0.0,68,3,68,0.00,0.00,7,2,11,0.00
2013-12-11,81.9,10.1,0.0,68.6,8.4,0.0,58,7,50,0.00,0.00,5,2,8,0.00
2013-12-12,77.4,16.5,0.0,71.6,13.8,0.0,80,13,40,0.00,0.00,10,4,13,0.00
2013-12-13,77.0,21.3,0.0,58.4,15.6,0.0,49,12,34,0.00,0.00,11,7,15,0.00
2013-12-14,82.6,38.7,0.0,73.1,33.1,0.0,84,31,42,0.00,0.00,10,4,11,0.00
2013-12-15,83.1,60.8,0.0,81.4,57.4,0.0,97,65,59,0.00,0.00,8,2,9,0.00
2013-12-16,72.9,10.7,0.0,60.8,9.1,0.0,75,10,50,0.00,0.00,8,4,10,0.00
2013-12-17,76.1,32.1,0.0,52.0,19.7,0.0,34,12,23,0.00,0.00,7,3,10,0.00
2013-12-18,74.5,67.7,0.0,62.6,47.9,0.0,95,43,21,0.00,0.00,8,3,8,0.00
2013-12-19,76.6,34.9,0.0,49.8,21.4,0.0,46,14,21,0.00,0.00,8,4,12,0.00
2013-12-20,77.2,9.6,0.0,57.0,7.0,0.0,41,5,37,0.00,0.00,9,5,15,0.00
2013-12-21,81.1,53.2,0.0,73.4,45.2,0.0,85,43,38,0.00,0.00,9,5,16,0.00
2013-12-22,79.7,11.3,0.0,70.1,9.7,0.0,74,9,44,0.00,0.00,10,4,16,0.00
2013-12-23,77.7,21.4,0.0,68.7,18.6,0.0,69,18,55,0.00,0.00,7,3,10,0.00
2013-12-24,81.1,34.7,0.0,74.6,29.5,0.0,96,30,34,0.00,0.00,10,3,12,0.00
2013-12-25,76.3,37.8,0.0,56.0,27.2,0.0,45,20,33,0.00,0.00,10,6,15,0.00
2013-12-26,78.4,59.2,0.0,60.8,44.9,0.0,51,34,34,0.00,0.00,8,5,13,0.00
2013-12-27,79.5,76.5,75.2,60.8,58.2,55.8,52,45,36,0.00,0.00,10,5,12,0.00
2013-12-28,80.6,77.1,75.2,69.9,60.1,56.3,76,48,35,0.00,0.00,11,6,15,0.00
2013-12-29,81.1,77.8,75.0,74.7,68.7,64.9,98,69,52,0.00,0.00,7,2,13,0.00
2013-12-30,78.6,74.0,70.5,74.7,71.7,67.6,98,91,69,0.00,0.00,7,2,8,0.00
2013-12-31,77.2,73.2,69.3,70.9,61.0,51.6,98,62,36,0.00,0.00,11,5,13,0.00
2014-1-1,80.4,76.7,74.1,74.9,69.5,52.1,93,75,36,0.00,0.00,9,4,14,0.00
2014-1-2,83.5,78.1,73.8,74.3,68.4,54.9,93,68,36,0.00,0.00,7,2,8,0.00